Maxwell Paul Moran — WDJ2221 — position and weather

sailwx.info

Track history (hours):
 
Tides and Currents Weather Stations Pressure Air Temp Water Temp Dewpoint Dewpoint Depression Visibility Wind Speed Wind Dir Waves Ship Positions

Maxwell Paul Moran

Owner: MORAN TOWING CORPORATION, NORFOLK, VA. More information available from US FCC via Universal Licensing System and Coast Guard Vessel Documentation Center.

Last reported at 2017-Oct-20 05:00 UTC. Time now 2017-Oct-20 05:05 UTC.
Position N 36°53' W 076°20'.

Length 28 m; draft 5.2 m.

Type: Tug. MMSI: 367756350.

Date/timePositionNaut miles runAvg speedWind from/ knotsBaromVisibWave heightAir tempDewpointWater temp
2017-Oct-20 05:00N 36°53' W 076°20'0 0.0
2017-Oct-20 04:30N 36°53' W 076°20'0 0.0
2017-Oct-20 04:00N 36°53' W 076°20'0 0.0
2017-Oct-20 03:30N 36°53' W 076°20'0 0.0
2017-Oct-20 03:00N 36°53' W 076°20'0 0.0
2017-Oct-20 02:30N 36°53' W 076°20'0 0.0
2017-Oct-20 02:00N 36°53' W 076°20'0 0.0
2017-Oct-20 01:30N 36°53' W 076°20'0 0.0
2017-Oct-20 01:00N 36°53' W 076°20'0 0.0
2017-Oct-19 21:53N 36°53' W 076°20'1 3.1
2017-Oct-19 21:27N 36°51' W 076°19'0 0.3
2017-Oct-19 21:00N 36°51' W 076°20'1 0.9
2017-Oct-19 20:17N 36°52' W 076°20'3 7.1
2017-Oct-19 19:50N 36°55' W 076°20'3 7.6
2017-Oct-19 19:30N 36°53' W 076°20'2 4.1
2017-Oct-19 19:00N 36°51' W 076°18'2 3.6
2017-Oct-19 18:30N 36°50' W 076°16'0 0.0
2017-Oct-19 18:00N 36°50' W 076°16'0 0.0
2017-Oct-19 17:30N 36°50' W 076°16'0 0.0
2017-Oct-19 17:00N 36°50' W 076°16'0 0.0
2017-Oct-19 16:30N 36°50' W 076°16'0 0.0
2017-Oct-19 16:00N 36°50' W 076°16'0 0.0
2017-Oct-19 15:30N 36°50' W 076°16'0 0.0
2017-Oct-19 15:00N 36°50' W 076°16'0 0.0
2017-Oct-19 14:30N 36°50' W 076°16'0 0.0
2017-Oct-19 14:00N 36°50' W 076°16'0 0.0
2017-Oct-19 13:30N 36°50' W 076°16'0 0.0
2017-Oct-19 13:00N 36°50' W 076°16'0 0.0
2017-Oct-19 12:30N 36°50' W 076°16'0 0.0
2017-Oct-19 12:00N 36°50' W 076°16'0 0.0
2017-Oct-19 11:30N 36°50' W 076°16'0 0.0
2017-Oct-19 11:00N 36°50' W 076°16'0 0.0
2017-Oct-19 10:30N 36°50' W 076°16'0 0.0
2017-Oct-19 10:00N 36°50' W 076°16'0 0.0
2017-Oct-19 09:30N 36°50' W 076°16'0 0.0
2017-Oct-19 09:00N 36°50' W 076°16'0 0.0
2017-Oct-19 08:30N 36°50' W 076°16'0 0.0
2017-Oct-19 08:00N 36°50' W 076°16'0 0.0
2017-Oct-19 07:30N 36°50' W 076°16'2 3.0
2017-Oct-19 07:00N 36°51' W 076°18'1 2.4
2017-Oct-19 06:29N 36°52' W 076°19'1 1.1
2017-Oct-19 06:00N 36°51' W 076°20'1 2.7
2017-Oct-19 05:30N 36°53' W 076°20'0 0.0
2017-Oct-19 04:55N 36°53' W 076°20'0 0.0
2017-Oct-19 04:04N 36°53' W 076°20'0 0.0
2017-Oct-19 02:17N 36°53' W 076°20'0 0.0
2017-Oct-19 01:57N 36°53' W 076°20'0 0.0
2017-Oct-19 01:20N 36°53' W 076°20'0 0.0
2017-Oct-19 00:59N 36°53' W 076°20'0 0.0
2017-Oct-19 00:30N 36°53' W 076°20'0 0.2
2017-Oct-18 23:23N 36°53' W 076°20'0 0.3
2017-Oct-18 23:00N 36°53' W 076°20'1 1.5
2017-Oct-18 22:25N 36°53' W 076°21'0 0.2
2017-Oct-18 21:41N 36°53' W 076°21'0 0.9
2017-Oct-18 21:29N 36°53' W 076°21'2 4.5
2017-Oct-18 20:56N 36°55' W 076°20'2 2.4
2017-Oct-18 20:14N 36°53' W 076°20'1 2.9
2017-Oct-18 20:00N 36°53' W 076°20'1 2.4
2017-Oct-18 19:29N 36°52' W 076°19'2 5.0
2017-Oct-18 19:00N 36°50' W 076°16'0 0.0
2017-Oct-18 18:30N 36°50' W 076°16'0 0.0
2017-Oct-18 18:00N 36°50' W 076°16'0 0.0
2017-Oct-18 17:30N 36°50' W 076°16'0 0.0
2017-Oct-18 17:00N 36°50' W 076°16'0 0.0
2017-Oct-18 16:30N 36°50' W 076°16'0 0.0
2017-Oct-18 15:59N 36°50' W 076°16'0 0.0
2017-Oct-18 15:22N 36°50' W 076°16'0 0.0
2017-Oct-18 15:00N 36°50' W 076°16'3 1.6
2017-Oct-18 12:45N 36°52' W 076°20'2 0.1
2017-Oct-17 22:21N 36°54' W 076°20'0 0.1
2017-Oct-17 21:05N 36°54' W 076°20'2 0.6
2017-Oct-17 17:01N 36°52' W 076°20'1 6.0
2017-Oct-17 16:46N 36°51' W 076°18'3 7.4
2017-Oct-17 16:20N 36°48' W 076°18'0 0.2
2017-Oct-17 15:15N 36°48' W 076°18'0 0.0
2017-Oct-17 14:55N 36°48' W 076°18'0 0.0
2017-Oct-17 14:27N 36°48' W 076°18'1 2.9
2017-Oct-17 13:59N 36°49' W 076°17'2 3.2
2017-Oct-17 13:30N 36°50' W 076°16'0 0.0
2017-Oct-17 12:54N 36°50' W 076°16'0 0.0
2017-Oct-17 12:26N 36°50' W 076°16'0 0.0
2017-Oct-17 12:00N 36°50' W 076°16'0 0.0
2017-Oct-17 11:14N 36°50' W 076°16'0 0.0
2017-Oct-17 10:42N 36°50' W 076°16'0 0.0
2017-Oct-17 10:28N 36°50' W 076°16'0 0.0
2017-Oct-17 09:46N 36°50' W 076°16'0 0.0
2017-Oct-17 09:23N 36°50' W 076°16'0 0.0
2017-Oct-17 08:35N 36°50' W 076°16'0 0.0
2017-Oct-17 08:27N 36°50' W 076°16'0 0.0
2017-Oct-17 08:00N 36°50' W 076°16'0 0.0
2017-Oct-17 07:29N 36°50' W 076°16'0 0.0
2017-Oct-17 07:00N 36°50' W 076°16'0 0.0
2017-Oct-17 06:30N 36°50' W 076°16'0 0.0
2017-Oct-17 06:00N 36°50' W 076°16'0 0.0
2017-Oct-17 05:30N 36°50' W 076°16'0 0.0
2017-Oct-17 05:00N 36°50' W 076°16'0 0.0
2017-Oct-17 04:30N 36°50' W 076°16'0 0.0
2017-Oct-17 04:00N 36°50' W 076°16'0 0.0
2017-Oct-17 03:30N 36°50' W 076°16'0 0.0
2017-Oct-17 03:00N 36°50' W 076°16'0 0.0
2017-Oct-17 02:30N 36°50' W 076°16'1 2.5
2017-Oct-17 02:00N 36°50' W 076°18'2 3.4
2017-Oct-17 01:30N 36°48' W 076°17'1 3.0
2017-Oct-17 01:00N 36°50' W 076°18'2 3.1
2017-Oct-17 00:29N 36°51' W 076°18'2 4.8
2017-Oct-17 00:00N 36°49' W 076°17'1 1.7
2017-Oct-16 23:30N 36°48' W 076°17'0 0.0
2017-Oct-16 23:00N 36°48' W 076°17'0 0.3
2017-Oct-16 22:30N 36°48' W 076°17'0 0.6
2017-Oct-16 22:00N 36°48' W 076°17'0 0.6
2017-Oct-16 21:30N 36°48' W 076°18'0 0.4
2017-Oct-16 21:00N 36°48' W 076°18'0 0.3
2017-Oct-16 20:30N 36°48' W 076°18'0 0.2
2017-Oct-16 20:00N 36°48' W 076°18'4 8.1
2017-Oct-16 19:28N 36°52' W 076°19'1 2.3
2017-Oct-16 19:00N 36°53' W 076°20'0 0.0
2017-Oct-16 18:30N 36°53' W 076°20'0 0.0
2017-Oct-16 18:00N 36°53' W 076°20'0 0.0
2017-Oct-16 17:30N 36°53' W 076°20'0 0.0
2017-Oct-16 17:00N 36°53' W 076°20'0 0.0
2017-Oct-16 16:30N 36°53' W 076°20'1 2.0
2017-Oct-16 16:00N 36°52' W 076°21'0 0.6
2017-Oct-16 15:21N 36°53' W 076°20'1 1.6
2017-Oct-16 14:58N 36°53' W 076°20'0 0.4
2017-Oct-16 13:59N 36°53' W 076°20'0 0.0
2017-Oct-16 13:29N 36°53' W 076°20'0 0.0
2017-Oct-16 13:00N 36°53' W 076°20'0 0.0
2017-Oct-16 11:51N 36°53' W 076°20'0 0.3
2017-Oct-16 11:30N 36°53' W 076°20'1 1.6
2017-Oct-16 11:00N 36°53' W 076°21'0 0.4
2017-Oct-16 10:30N 36°53' W 076°21'1 1.3
2017-Oct-16 10:00N 36°53' W 076°20'0 0.0
2017-Oct-16 09:30N 36°53' W 076°20'1 1.3
2017-Oct-16 09:00N 36°53' W 076°20'1 0.4
2017-Oct-16 05:28N 36°55' W 076°20'0 0.6
2017-Oct-16 04:56N 36°55' W 076°20'0 0.2
2017-Oct-16 03:55N 36°54' W 076°20'0 0.2
2017-Oct-16 03:31N 36°54' W 076°20'1 0.1
2017-Oct-15 15:26N 36°56' W 076°20'0 0.0
2017-Oct-15 15:00N 36°56' W 076°20'3 3.1
2017-Oct-15 14:00N 36°53' W 076°20'1 0.1
2017-Oct-15 06:39N 36°52' W 076°19'1 4.9
2017-Oct-15 06:30N 36°52' W 076°20'0 0.7
2017-Oct-15 06:00N 36°53' W 076°20'0 0.0
2017-Oct-15 05:30N 36°53' W 076°20'0 0.0
2017-Oct-15 05:00N 36°53' W 076°20'0 0.0
2017-Oct-15 04:30N 36°53' W 076°20'0 0.0
2017-Oct-15 04:00N 36°53' W 076°20'0 0.0
2017-Oct-15 03:30N 36°53' W 076°20'0 0.0
2017-Oct-15 03:00N 36°53' W 076°20'0 0.0
2017-Oct-15 02:30N 36°53' W 076°20'0 0.0
2017-Oct-15 02:00N 36°53' W 076°20'0 0.0
2017-Oct-15 01:30N 36°53' W 076°20'0 0.0
2017-Oct-15 01:00N 36°53' W 076°20'0 0.0
2017-Oct-15 00:30N 36°53' W 076°20'0 0.0
2017-Oct-15 00:00N 36°53' W 076°20'3 0.9
2017-Oct-14 21:01N 36°55' W 076°20'0 5.5
2017-Oct-14 21:00N 36°55' W 076°20'1 1.9
2017-Oct-14 20:30N 36°55' W 076°20'1 1.4
2017-Oct-14 19:56N 36°55' W 076°20'1 0.6
2017-Oct-14 18:59N 36°55' W 076°20'2 3.9
2017-Oct-14 18:30N 36°53' W 076°20'0 0.0
2017-Oct-14 18:00N 36°53' W 076°20'0 0.0
2017-Oct-14 17:30N 36°53' W 076°20'0 0.0
2017-Oct-14 16:58N 36°53' W 076°20'1 2.9
2017-Oct-14 16:30N 36°51' W 076°20'0 0.1
2017-Oct-14 16:00N 36°51' W 076°20'0 0.0
2017-Oct-14 15:30N 36°51' W 076°20'1 2.8
2017-Oct-14 15:00N 36°53' W 076°20'1 1.4
2017-Oct-14 14:30N 36°53' W 076°21'0 0.1
2017-Oct-14 14:00N 36°53' W 076°21'1 2.8
2017-Oct-14 13:29N 36°51' W 076°20'0 0.0
2017-Oct-14 12:59N 36°51' W 076°20'0 0.0
2017-Oct-14 12:25N 36°51' W 076°20'0 0.0
2017-Oct-14 11:03N 36°51' W 076°20'0 0.1
2017-Oct-14 11:00N 36°51' W 076°20'0 0.1
2017-Oct-14 10:13N 36°51' W 076°20'2 2.5
2017-Oct-14 09:35N 36°53' W 076°20'0 2.1
2017-Oct-14 09:26N 36°53' W 076°20'0 0.2
2017-Oct-14 09:00N 36°53' W 076°20'0 0.0
2017-Oct-14 08:30N 36°53' W 076°20'0 0.0
2017-Oct-14 08:00N 36°53' W 076°20'0 0.0
2017-Oct-14 07:27N 36°53' W 076°20'0 0.0
2017-Oct-14 06:59N 36°53' W 076°20'0 0.0
2017-Oct-14 06:24N 36°53' W 076°20'0 0.0
2017-Oct-14 06:00N 36°53' W 076°20'0 0.0
2017-Oct-14 05:30N 36°53' W 076°20'0 0.0
2017-Oct-14 05:00N 36°53' W 076°20'0 0.0
2017-Oct-14 04:30N 36°53' W 076°20'0 0.0
2017-Oct-14 04:00N 36°53' W 076°20'0 0.0
2017-Oct-14 03:30N 36°53' W 076°20'0 0.0
2017-Oct-14 03:00N 36°53' W 076°20'0 0.0
2017-Oct-14 02:30N 36°53' W 076°20'0 0.0
2017-Oct-14 02:00N 36°53' W 076°20'0 0.0
2017-Oct-13 22:30N 36°53' W 076°20'0 0.0
2017-Oct-13 12:02N 36°53' W 076°20'0 5.9
2017-Oct-13 12:00N 36°53' W 076°20'1 2.6
2017-Oct-13 11:30N 36°51' W 076°20'1 2.3
2017-Oct-13 10:59N 36°53' W 076°20'0 0.3
2017-Oct-13 10:30N 36°53' W 076°20'0 0.0
2017-Oct-13 09:55N 36°53' W 076°20'0 0.0
2017-Oct-13 09:28N 36°53' W 076°20'4 8.2
2017-Oct-13 09:00N 36°49' W 076°17'1 2.8
2017-Oct-13 08:30N 36°48' W 076°17'0 0.0
2017-Oct-13 08:00N 36°48' W 076°17'1 2.9
2017-Oct-13 07:30N 36°50' W 076°18'2 4.8
2017-Oct-13 07:00N 36°51' W 076°19'0 0.0
2017-Oct-13 06:29N 36°51' W 076°19'0 0.0
2017-Oct-13 04:57N 36°51' W 076°19'0 0.0
2017-Oct-13 04:27N 36°51' W 076°19'0 0.5
2017-Oct-13 04:00N 36°52' W 076°19'1 2.8
2017-Oct-13 03:30N 36°52' W 076°21'0 0.4
2017-Oct-13 03:00N 36°53' W 076°21'1 1.2
2017-Oct-13 02:08N 36°53' W 076°20'2 7.5
2017-Oct-13 01:50N 36°56' W 076°20'0 0.1
2017-Oct-12 22:22N 36°56' W 076°20'0 0.0
2017-Oct-12 21:45N 36°56' W 076°20'0 0.9
2017-Oct-12 21:30N 36°56' W 076°20'0 0.7
2017-Oct-12 21:00N 36°55' W 076°20'0 0.5
2017-Oct-12 20:24N 36°56' W 076°20'3 2.0
2017-Oct-12 19:04N 36°53' W 076°20'0 0.1
2017-Oct-12 17:52N 36°53' W 076°20'0 0.0
2017-Oct-12 17:28N 36°53' W 076°20'0 0.1
2017-Oct-12 16:56N 36°53' W 076°20'3 5.9
2017-Oct-12 16:29N 36°51' W 076°18'1 2.5
2017-Oct-12 16:00N 36°50' W 076°16'4 6.4
2017-Oct-12 15:26N 36°53' W 076°20'4 8.3
2017-Oct-12 15:00N 36°50' W 076°18'3 5.9
2017-Oct-12 14:30N 36°47' W 076°18'0 0.2
2017-Oct-12 14:00N 36°47' W 076°18'1 2.8
2017-Oct-12 13:30N 36°48' W 076°18'3 5.8
2017-Oct-12 12:58N 36°51' W 076°18'2 4.8
2017-Oct-12 12:30N 36°53' W 076°20'0 0.0
2017-Oct-12 11:47N 36°53' W 076°20'0 0.0
2017-Oct-12 11:30N 36°53' W 076°20'0 0.0
2017-Oct-12 11:00N 36°53' W 076°20'0 0.0
2017-Oct-12 10:25N 36°53' W 076°20'0 0.0
2017-Oct-12 10:00N 36°53' W 076°20'0 0.0
2017-Oct-12 09:26N 36°53' W 076°20'0 0.0
2017-Oct-12 08:47N 36°53' W 076°20'0 0.0
2017-Oct-12 08:29N 36°53' W 076°20'0 0.0
2017-Oct-12 07:41N 36°53' W 076°20'0 0.0
2017-Oct-12 07:29N 36°53' W 076°20'0 0.0
2017-Oct-12 06:50N 36°53' W 076°20'0 0.0
2017-Oct-12 06:25N 36°53' W 076°20'4 0.5
2017-Oct-11 23:02N 36°50' W 076°16'0 0.2
2017-Oct-11 23:00N 36°50' W 076°16'0 0.0
2017-Oct-11 22:30N 36°50' W 076°16'0 0.0
2017-Oct-11 21:59N 36°50' W 076°16'0 0.0
2017-Oct-11 21:30N 36°50' W 076°16'0 0.0
2017-Oct-11 20:52N 36°50' W 076°16'0 0.0
2017-Oct-11 20:29N 36°50' W 076°16'0 0.0
2017-Oct-11 20:00N 36°50' W 076°16'0 0.0
2017-Oct-11 19:30N 36°50' W 076°16'0 0.0
2017-Oct-11 18:59N 36°50' W 076°16'0 0.0
2017-Oct-11 18:30N 36°50' W 076°16'0 0.0
2017-Oct-11 17:56N 36°50' W 076°16'0 0.0
2017-Oct-11 17:29N 36°50' W 076°16'0 0.0
2017-Oct-11 16:58N 36°50' W 076°16'0 0.0
2017-Oct-10 23:58N 36°50' W 076°16'0 0.0
2017-Oct-10 23:29N 36°50' W 076°16'0 0.0
2017-Oct-10 23:00N 36°50' W 076°16'  
Track history (hours):
 
Tides and Currents Weather Stations Pressure Air Temp Water Temp Dewpoint Dewpoint Depression Visibility Wind Speed Wind Dir Waves Ship Positions

Maxwell Paul Moran

Owner: MORAN TOWING CORPORATION, NORFOLK, VA. More information available from US FCC via Universal Licensing System and Coast Guard Vessel Documentation Center.

Last reported at 2017-Oct-20 05:00 UTC. Time now 2017-Oct-20 05:05 UTC.
Position N 36°53' W 076°20'.

Length 28 m; draft 5.2 m.

Type: Tug. MMSI: 367756350.

Date/timePositionNaut miles runAvg speedWind from/ knotsBaromVisibWave heightAir tempDewpointWater temp
2017-Oct-20 05:00N 36°53' W 076°20'0 0.0
2017-Oct-20 04:30N 36°53' W 076°20'0 0.0
2017-Oct-20 04:00N 36°53' W 076°20'0 0.0
2017-Oct-20 03:30N 36°53' W 076°20'0 0.0
2017-Oct-20 03:00N 36°53' W 076°20'0 0.0
2017-Oct-20 02:30N 36°53' W 076°20'0 0.0
2017-Oct-20 02:00N 36°53' W 076°20'0 0.0
2017-Oct-20 01:30N 36°53' W 076°20'0 0.0
2017-Oct-20 01:00N 36°53' W 076°20'0 0.0
2017-Oct-19 21:53N 36°53' W 076°20'1 3.1
2017-Oct-19 21:27N 36°51' W 076°19'0 0.3
2017-Oct-19 21:00N 36°51' W 076°20'1 0.9
2017-Oct-19 20:17N 36°52' W 076°20'3 7.1
2017-Oct-19 19:50N 36°55' W 076°20'3 7.6
2017-Oct-19 19:30N 36°53' W 076°20'2 4.1
2017-Oct-19 19:00N 36°51' W 076°18'2 3.6
2017-Oct-19 18:30N 36°50' W 076°16'0 0.0
2017-Oct-19 18:00N 36°50' W 076°16'0 0.0
2017-Oct-19 17:30N 36°50' W 076°16'0 0.0
2017-Oct-19 17:00N 36°50' W 076°16'0 0.0
2017-Oct-19 16:30N 36°50' W 076°16'0 0.0
2017-Oct-19 16:00N 36°50' W 076°16'0 0.0
2017-Oct-19 15:30N 36°50' W 076°16'0 0.0
2017-Oct-19 15:00N 36°50' W 076°16'0 0.0
2017-Oct-19 14:30N 36°50' W 076°16'0 0.0
2017-Oct-19 14:00N 36°50' W 076°16'0 0.0
2017-Oct-19 13:30N 36°50' W 076°16'0 0.0
2017-Oct-19 13:00N 36°50' W 076°16'0 0.0
2017-Oct-19 12:30N 36°50' W 076°16'0 0.0
2017-Oct-19 12:00N 36°50' W 076°16'0 0.0
2017-Oct-19 11:30N 36°50' W 076°16'0 0.0
2017-Oct-19 11:00N 36°50' W 076°16'0 0.0
2017-Oct-19 10:30N 36°50' W 076°16'0 0.0
2017-Oct-19 10:00N 36°50' W 076°16'0 0.0
2017-Oct-19 09:30N 36°50' W 076°16'0 0.0
2017-Oct-19 09:00N 36°50' W 076°16'0 0.0
2017-Oct-19 08:30N 36°50' W 076°16'0 0.0
2017-Oct-19 08:00N 36°50' W 076°16'0 0.0
2017-Oct-19 07:30N 36°50' W 076°16'2 3.0
2017-Oct-19 07:00N 36°51' W 076°18'1 2.4
2017-Oct-19 06:29N 36°52' W 076°19'1 1.1
2017-Oct-19 06:00N 36°51' W 076°20'1 2.7
2017-Oct-19 05:30N 36°53' W 076°20'0 0.0
2017-Oct-19 04:55N 36°53' W 076°20'0 0.0
2017-Oct-19 04:04N 36°53' W 076°20'0 0.0
2017-Oct-19 02:17N 36°53' W 076°20'0 0.0
2017-Oct-19 01:57N 36°53' W 076°20'0 0.0
2017-Oct-19 01:20N 36°53' W 076°20'0 0.0
2017-Oct-19 00:59N 36°53' W 076°20'0 0.0
2017-Oct-19 00:30N 36°53' W 076°20'0 0.2
2017-Oct-18 23:23N 36°53' W 076°20'0 0.3
2017-Oct-18 23:00N 36°53' W 076°20'1 1.5
2017-Oct-18 22:25N 36°53' W 076°21'0 0.2
2017-Oct-18 21:41N 36°53' W 076°21'0 0.9
2017-Oct-18 21:29N 36°53' W 076°21'2 4.5
2017-Oct-18 20:56N 36°55' W 076°20'2 2.4
2017-Oct-18 20:14N 36°53' W 076°20'1 2.9
2017-Oct-18 20:00N 36°53' W 076°20'1 2.4
2017-Oct-18 19:29N 36°52' W 076°19'2 5.0
2017-Oct-18 19:00N 36°50' W 076°16'0 0.0
2017-Oct-18 18:30N 36°50' W 076°16'0 0.0
2017-Oct-18 18:00N 36°50' W 076°16'0 0.0
2017-Oct-18 17:30N 36°50' W 076°16'0 0.0
2017-Oct-18 17:00N 36°50' W 076°16'0 0.0
2017-Oct-18 16:30N 36°50' W 076°16'0 0.0
2017-Oct-18 15:59N 36°50' W 076°16'0 0.0
2017-Oct-18 15:22N 36°50' W 076°16'0 0.0
2017-Oct-18 15:00N 36°50' W 076°16'3 1.6
2017-Oct-18 12:45N 36°52' W 076°20'2 0.1
2017-Oct-17 22:21N 36°54' W 076°20'0 0.1
2017-Oct-17 21:05N 36°54' W 076°20'2 0.6
2017-Oct-17 17:01N 36°52' W 076°20'1 6.0
2017-Oct-17 16:46N 36°51' W 076°18'3 7.4
2017-Oct-17 16:20N 36°48' W 076°18'0 0.2
2017-Oct-17 15:15N 36°48' W 076°18'0 0.0
2017-Oct-17 14:55N 36°48' W 076°18'0 0.0
2017-Oct-17 14:27N 36°48' W 076°18'1 2.9
2017-Oct-17 13:59N 36°49' W 076°17'2 3.2
2017-Oct-17 13:30N 36°50' W 076°16'0 0.0
2017-Oct-17 12:54N 36°50' W 076°16'0 0.0
2017-Oct-17 12:26N 36°50' W 076°16'0 0.0
2017-Oct-17 12:00N 36°50' W 076°16'0 0.0
2017-Oct-17 11:14N 36°50' W 076°16'0 0.0
2017-Oct-17 10:42N 36°50' W 076°16'0 0.0
2017-Oct-17 10:28N 36°50' W 076°16'0 0.0
2017-Oct-17 09:46N 36°50' W 076°16'0 0.0
2017-Oct-17 09:23N 36°50' W 076°16'0 0.0
2017-Oct-17 08:35N 36°50' W 076°16'0 0.0
2017-Oct-17 08:27N 36°50' W 076°16'0 0.0
2017-Oct-17 08:00N 36°50' W 076°16'0 0.0
2017-Oct-17 07:29N 36°50' W 076°16'0 0.0
2017-Oct-17 07:00N 36°50' W 076°16'0 0.0
2017-Oct-17 06:30N 36°50' W 076°16'0 0.0
2017-Oct-17 06:00N 36°50' W 076°16'0 0.0
2017-Oct-17 05:30N 36°50' W 076°16'0 0.0
2017-Oct-17 05:00N 36°50' W 076°16'0 0.0
2017-Oct-17 04:30N 36°50' W 076°16'0 0.0
2017-Oct-17 04:00N 36°50' W 076°16'0 0.0
2017-Oct-17 03:30N 36°50' W 076°16'0 0.0
2017-Oct-17 03:00N 36°50' W 076°16'0 0.0
2017-Oct-17 02:30N 36°50' W 076°16'1 2.5
2017-Oct-17 02:00N 36°50' W 076°18'2 3.4
2017-Oct-17 01:30N 36°48' W 076°17'1 3.0
2017-Oct-17 01:00N 36°50' W 076°18'2 3.1
2017-Oct-17 00:29N 36°51' W 076°18'2 4.8
2017-Oct-17 00:00N 36°49' W 076°17'1 1.7
2017-Oct-16 23:30N 36°48' W 076°17'0 0.0
2017-Oct-16 23:00N 36°48' W 076°17'0 0.3
2017-Oct-16 22:30N 36°48' W 076°17'0 0.6
2017-Oct-16 22:00N 36°48' W 076°17'0 0.6
2017-Oct-16 21:30N 36°48' W 076°18'0 0.4
2017-Oct-16 21:00N 36°48' W 076°18'0 0.3
2017-Oct-16 20:30N 36°48' W 076°18'0 0.2
2017-Oct-16 20:00N 36°48' W 076°18'4 8.1
2017-Oct-16 19:28N 36°52' W 076°19'1 2.3
2017-Oct-16 19:00N 36°53' W 076°20'0 0.0
2017-Oct-16 18:30N 36°53' W 076°20'0 0.0
2017-Oct-16 18:00N 36°53' W 076°20'0 0.0
2017-Oct-16 17:30N 36°53' W 076°20'0 0.0
2017-Oct-16 17:00N 36°53' W 076°20'0 0.0
2017-Oct-16 16:30N 36°53' W 076°20'1 2.0
2017-Oct-16 16:00N 36°52' W 076°21'0 0.6
2017-Oct-16 15:21N 36°53' W 076°20'1 1.6
2017-Oct-16 14:58N 36°53' W 076°20'0 0.4
2017-Oct-16 13:59N 36°53' W 076°20'0 0.0
2017-Oct-16 13:29N 36°53' W 076°20'0 0.0
2017-Oct-16 13:00N 36°53' W 076°20'0 0.0
2017-Oct-16 11:51N 36°53' W 076°20'0 0.3
2017-Oct-16 11:30N 36°53' W 076°20'1 1.6
2017-Oct-16 11:00N 36°53' W 076°21'0 0.4
2017-Oct-16 10:30N 36°53' W 076°21'1 1.3
2017-Oct-16 10:00N 36°53' W 076°20'0 0.0
2017-Oct-16 09:30N 36°53' W 076°20'1 1.3
2017-Oct-16 09:00N 36°53' W 076°20'1 0.4
2017-Oct-16 05:28N 36°55' W 076°20'0 0.6
2017-Oct-16 04:56N 36°55' W 076°20'0 0.2
2017-Oct-16 03:55N 36°54' W 076°20'0 0.2
2017-Oct-16 03:31N 36°54' W 076°20'1 0.1
2017-Oct-15 15:26N 36°56' W 076°20'0 0.0
2017-Oct-15 15:00N 36°56' W 076°20'3 3.1
2017-Oct-15 14:00N 36°53' W 076°20'1 0.1
2017-Oct-15 06:39N 36°52' W 076°19'1 4.9
2017-Oct-15 06:30N 36°52' W 076°20'0 0.7
2017-Oct-15 06:00N 36°53' W 076°20'0 0.0
2017-Oct-15 05:30N 36°53' W 076°20'0 0.0
2017-Oct-15 05:00N 36°53' W 076°20'0 0.0
2017-Oct-15 04:30N 36°53' W 076°20'0 0.0
2017-Oct-15 04:00N 36°53' W 076°20'0 0.0
2017-Oct-15 03:30N 36°53' W 076°20'0 0.0
2017-Oct-15 03:00N 36°53' W 076°20'0 0.0
2017-Oct-15 02:30N 36°53' W 076°20'0 0.0
2017-Oct-15 02:00N 36°53' W 076°20'0 0.0
2017-Oct-15 01:30N 36°53' W 076°20'0 0.0
2017-Oct-15 01:00N 36°53' W 076°20'0 0.0
2017-Oct-15 00:30N 36°53' W 076°20'0 0.0
2017-Oct-15 00:00N 36°53' W 076°20'3 0.9
2017-Oct-14 21:01N 36°55' W 076°20'0 5.5
2017-Oct-14 21:00N 36°55' W 076°20'1 1.9
2017-Oct-14 20:30N 36°55' W 076°20'1 1.4
2017-Oct-14 19:56N 36°55' W 076°20'1 0.6
2017-Oct-14 18:59N 36°55' W 076°20'2 3.9
2017-Oct-14 18:30N 36°53' W 076°20'0 0.0
2017-Oct-14 18:00N 36°53' W 076°20'0 0.0
2017-Oct-14 17:30N 36°53' W 076°20'0 0.0
2017-Oct-14 16:58N 36°53' W 076°20'1 2.9
2017-Oct-14 16:30N 36°51' W 076°20'0 0.1
2017-Oct-14 16:00N 36°51' W 076°20'0 0.0
2017-Oct-14 15:30N 36°51' W 076°20'1 2.8
2017-Oct-14 15:00N 36°53' W 076°20'1 1.4
2017-Oct-14 14:30N 36°53' W 076°21'0 0.1
2017-Oct-14 14:00N 36°53' W 076°21'1 2.8
2017-Oct-14 13:29N 36°51' W 076°20'0 0.0
2017-Oct-14 12:59N 36°51' W 076°20'0 0.0
2017-Oct-14 12:25N 36°51' W 076°20'0 0.0
2017-Oct-14 11:03N 36°51' W 076°20'0 0.1
2017-Oct-14 11:00N 36°51' W 076°20'0 0.1
2017-Oct-14 10:13N 36°51' W 076°20'2 2.5
2017-Oct-14 09:35N 36°53' W 076°20'0 2.1
2017-Oct-14 09:26N 36°53' W 076°20'0 0.2
2017-Oct-14 09:00N 36°53' W 076°20'0 0.0
2017-Oct-14 08:30N 36°53' W 076°20'0 0.0
2017-Oct-14 08:00N 36°53' W 076°20'0 0.0
2017-Oct-14 07:27N 36°53' W 076°20'0 0.0
2017-Oct-14 06:59N 36°53' W 076°20'0 0.0
2017-Oct-14 06:24N 36°53' W 076°20'0 0.0
2017-Oct-14 06:00N 36°53' W 076°20'0 0.0
2017-Oct-14 05:30N 36°53' W 076°20'0 0.0
2017-Oct-14 05:00N 36°53' W 076°20'0 0.0
2017-Oct-14 04:30N 36°53' W 076°20'0 0.0
2017-Oct-14 04:00N 36°53' W 076°20'0 0.0
2017-Oct-14 03:30N 36°53' W 076°20'0 0.0
2017-Oct-14 03:00N 36°53' W 076°20'0 0.0
2017-Oct-14 02:30N 36°53' W 076°20'0 0.0
2017-Oct-14 02:00N 36°53' W 076°20'0 0.0
2017-Oct-13 22:30N 36°53' W 076°20'0 0.0
2017-Oct-13 12:02N 36°53' W 076°20'0 5.9
2017-Oct-13 12:00N 36°53' W 076°20'1 2.6
2017-Oct-13 11:30N 36°51' W 076°20'1 2.3
2017-Oct-13 10:59N 36°53' W 076°20'0 0.3
2017-Oct-13 10:30N 36°53' W 076°20'0 0.0
2017-Oct-13 09:55N 36°53' W 076°20'0 0.0
2017-Oct-13 09:28N 36°53' W 076°20'4 8.2
2017-Oct-13 09:00N 36°49' W 076°17'1 2.8
2017-Oct-13 08:30N 36°48' W 076°17'0 0.0
2017-Oct-13 08:00N 36°48' W 076°17'1 2.9
2017-Oct-13 07:30N 36°50' W 076°18'2 4.8
2017-Oct-13 07:00N 36°51' W 076°19'0 0.0
2017-Oct-13 06:29N 36°51' W 076°19'0 0.0
2017-Oct-13 04:57N 36°51' W 076°19'0 0.0
2017-Oct-13 04:27N 36°51' W 076°19'0 0.5
2017-Oct-13 04:00N 36°52' W 076°19'1 2.8
2017-Oct-13 03:30N 36°52' W 076°21'0 0.4
2017-Oct-13 03:00N 36°53' W 076°21'1 1.2
2017-Oct-13 02:08N 36°53' W 076°20'2 7.5
2017-Oct-13 01:50N 36°56' W 076°20'0 0.1
2017-Oct-12 22:22N 36°56' W 076°20'0 0.0
2017-Oct-12 21:45N 36°56' W 076°20'0 0.9
2017-Oct-12 21:30N 36°56' W 076°20'0 0.7
2017-Oct-12 21:00N 36°55' W 076°20'0 0.5
2017-Oct-12 20:24N 36°56' W 076°20'3 2.0
2017-Oct-12 19:04N 36°53' W 076°20'0 0.1
2017-Oct-12 17:52N 36°53' W 076°20'0 0.0
2017-Oct-12 17:28N 36°53' W 076°20'0 0.1
2017-Oct-12 16:56N 36°53' W 076°20'3 5.9
2017-Oct-12 16:29N 36°51' W 076°18'1 2.5
2017-Oct-12 16:00N 36°50' W 076°16'4 6.4
2017-Oct-12 15:26N 36°53' W 076°20'4 8.3
2017-Oct-12 15:00N 36°50' W 076°18'3 5.9
2017-Oct-12 14:30N 36°47' W 076°18'0 0.2
2017-Oct-12 14:00N 36°47' W 076°18'1 2.8
2017-Oct-12 13:30N 36°48' W 076°18'3 5.8
2017-Oct-12 12:58N 36°51' W 076°18'2 4.8
2017-Oct-12 12:30N 36°53' W 076°20'0 0.0
2017-Oct-12 11:47N 36°53' W 076°20'0 0.0
2017-Oct-12 11:30N 36°53' W 076°20'0 0.0
2017-Oct-12 11:00N 36°53' W 076°20'0 0.0
2017-Oct-12 10:25N 36°53' W 076°20'0 0.0
2017-Oct-12 10:00N 36°53' W 076°20'0 0.0
2017-Oct-12 09:26N 36°53' W 076°20'0 0.0
2017-Oct-12 08:47N 36°53' W 076°20'0 0.0
2017-Oct-12 08:29N 36°53' W 076°20'0 0.0
2017-Oct-12 07:41N 36°53' W 076°20'0 0.0
2017-Oct-12 07:29N 36°53' W 076°20'0 0.0
2017-Oct-12 06:50N 36°53' W 076°20'0 0.0
2017-Oct-12 06:25N 36°53' W 076°20'4 0.5
2017-Oct-11 23:02N 36°50' W 076°16'0 0.2
2017-Oct-11 23:00N 36°50' W 076°16'0 0.0
2017-Oct-11 22:30N 36°50' W 076°16'0 0.0
2017-Oct-11 21:59N 36°50' W 076°16'0 0.0
2017-Oct-11 21:30N 36°50' W 076°16'0 0.0
2017-Oct-11 20:52N 36°50' W 076°16'0 0.0
2017-Oct-11 20:29N 36°50' W 076°16'0 0.0
2017-Oct-11 20:00N 36°50' W 076°16'0 0.0
2017-Oct-11 19:30N 36°50' W 076°16'0 0.0
2017-Oct-11 18:59N 36°50' W 076°16'0 0.0
2017-Oct-11 18:30N 36°50' W 076°16'0 0.0
2017-Oct-11 17:56N 36°50' W 076°16'0 0.0
2017-Oct-11 17:29N 36°50' W 076°16'0 0.0
2017-Oct-11 16:58N 36°50' W 076°16'0 0.0
2017-Oct-10 23:58N 36°50' W 076°16'0 0.0
2017-Oct-10 23:29N 36°50' W 076°16'0 0.0
2017-Oct-10 23:00N 36°50' W 076°16'  

Dump ship's entire track history